LSZH Airport Information

Runway Information
Runway 10 Length 8202 ft width 197 ft
Elevation 1391 ft Threshold 0 ft Heading 96
Runway 28 Length 8202 ft Width 197 ft
Elevation 1416 ft Threshold 0 ft Heading 276
Runway 14 Length 10827 ft width 197 ft
Elevation 1402 ft Threshold 490 ft Heading 137
Runway 32 Length 10827 ft Width 197 ft
Elevation 1402 ft Threshold 0 ft Heading 317
Runway 16 Length 12139 ft width 197 ft
Elevation 1390 ft Threshold 0 ft Heading 155
Runway 34 Length 12139 ft Width 197 ft
Elevation 1388 ft Threshold 1541 ft Heading 335
Airport Frequencies
Type APP Name APP Frequency 118 MHZ
Type ATIS Name ATIS Frequency 125.725 MHZ
Type CLD Name CLNC DEL Frequency 121.8 MHZ
Type DEP Name DEP Frequency 125.95 MHZ
Type GND Name GND Frequency 121.9 MHZ
Type RMP Name APRON Frequency 121.75 MHZ
Type TCA Name TERMINAL Frequency 127.75 MHZ
Type TWR Name TWR Frequency 118.1 MHZ
Airport Navaids
Type VOR-DME Name Kloten Frequency 114850 KHZ
Type VOR-DME Name Zurich East Frequency 110050 KHZ
Airport Weather Information & NOTAM
ADDS - METARS form results

(1554 UTC 14 June 2021)
Data provider http://aviationweather.gov/metar/data/
 
METAR text: LSZH 141550Z 07006KT 040V100 CAVOK 27/09 Q1019 NOSIG
Conditions at: LSZH (ZURICH-KLOTEN (A, CH) observed 1550 UTC 14 June 2021
Temperature: 27.0°C (81°F)
Dewpoint: 9.0°C (48°F) [RH = 32%]
Pressure (altimeter): 30.09 inches Hg (1019.0 mb)
Winds: from the ENE (70 degrees) at 7 MPH (6 knots; 3.1 m/s)
Visibility: 6 or more miles (10+ km)
Ceiling: ceiling and visibility are OK
Clouds: unknown
Weather: no significant weather observed at this time

METAR text: LSZH 141520Z 05007KT CAVOK 27/08 Q1019 NOSIG
Conditions at: LSZH (ZURICH-KLOTEN (A, CH) observed 1520 UTC 14 June 2021
Temperature: 27.0°C (81°F)
Dewpoint: 8.0°C (46°F) [RH = 30%]
Pressure (altimeter): 30.09 inches Hg (1019.0 mb)
Winds: from the NE (50 degrees) at 8 MPH (7 knots; 3.6 m/s)
Visibility: 6 or more miles (10+ km)
Ceiling: ceiling and visibility are OK
Clouds: unknown
Weather: no significant weather observed at this time

Forecast for: LSZH (ZURICH-KLOTEN (A, CH)
Text: TAF LSZH 141425Z 1415/1521 07007KT CAVOK TX28/1415Z TN11/1504Z TX30/1515Z
Forecast period: 1500 to 1900 UTC 14 June 2021
Forecast type: FROM: standard forecast or significant change
Winds: from the ENE (70 degrees) at 8 MPH (7 knots; 3.6 m/s)
Visibility: 6 or more miles (10+ km)
Ceiling: unknown
Clouds: missing
Weather: no significant weather forecast for this period
Text: BECMG 1419/1422 VRB02KT
Forecast period: 1900 UTC 14 June 2021 to 2100 UTC 15 June 2021
Forecast type: BECOMING: Conditions expected to become as follows by 2200 UTC 14 June 2021
Winds: variable direction winds at 2 MPH (2 knots; 1.0 m/s)
Visibility: 6 or more miles (10+ km)
Ceiling: unknown
Clouds: missing
Weather: no significant weather forecast for this period